Arcanum, Ohio
Current Conditions -  °F | °C
As of 10:35 PM on Saturday 22 Nov 2014 (Local Time) from KVES Reporting Station
Overcast Overcast  
Wind Chill: 50°   Ceiling: 11000
Heat Index: 50°   Visibility: 10mi
Dew Point: 37°   Wind: 12mph
Humidity: 62%   Direction: 210°SSW
Pressure: 30.02"   Gusts: NA
Location:  39.99°N, 84.55°W
Report Text: KVES 230335Z AUTO 21010KT 10SM SCT046 SCT075 OVC110 10/03 A3002 RMK AO2
Loading
Personal Weather Stations






























Interactive Weather Map New forecast layout! Learn more

10-Day Weather Forecast

Advertisements
Track Severe Weather on mobile